• Join FlightAware (Why Join?)
  • Login
  • US Flag 
11:46PM EDT


 

Airport Tracker/Info


-or-


 

Live Flight TrackerFlight Track Log ✈ GJS3657 ✈ 07-Oct-2013 ✈ KBZN - KDEN

Flight Track Log - Related Links

Times and Time Zones

All times are in EDT time to prevent confusion due to time zone crossing. See the GJS3657 flight status page for this flight to view local times or setup timezone preferences in your user account.

Time Position Orientation Groundspeed Altitude Reporting Facility
EDT Latitude Longitude Course Direction KTS MPH feet Rate Location/Type
09:43AM 45.7639 -111.1344 138° Southeast 202 232 5,100  Level Salt Lake Center
09:43AM 45.6456 -111.0425 151° Southeast 147 169 5,400 1,740 Climbing Salt Lake Center
09:43AM 45.6353 -111.0292 138° Southeast 159 183 5,900 1,560 Climbing Salt Lake Center
09:44AM 45.7292 -111.0817 339° North 180 207 6,800 1,860 Climbing Salt Lake Center
09:44AM 45.5931 -110.9694 150° Southeast 223 257 7,800 1,740 Climbing Salt Lake Center
09:45AM 45.6822 -111.0111 342° North 231 266 8,600 1,560 Climbing Salt Lake Center
09:46AM 45.5494 -110.8981 149° Southeast 271 312 9,400 1,740 Climbing Salt Lake Center
09:46AM 45.6558 -110.9006 359° North 300 345 10,400 2,100 Climbing Salt Lake Center
09:47AM 45.5314 -110.7717 144° Southeast 339 390 11,500 2,400 Climbing Salt Lake Center
09:47AM 45.6264 -110.7817 356° North 321 369 12,900 2,220 Climbing Salt Lake Center
09:48AM 45.2700 -110.5267 138° Southeast  Level Estimated
09:48AM 45.4772 -110.6775 154° Southeast 314 361 13,800  Level Salt Lake Center
09:48AM 45.5569 -110.7064 346° North 310 357 15,200 2,220 Climbing Salt Lake Center
09:49AM 45.4017 -110.5950 153° Southeast 316 364 16,300 1,860 Climbing Salt Lake Center
09:49AM 45.4864 -110.6225 347° North 324 373 17,100 1,380 Climbing Salt Lake Center
09:50AM 45.3253 -110.5103 154° Southeast 343 395 17,700 1,140 Climbing Salt Lake Center
09:50AM 45.4175 -110.5439 346° North 343 395 18,300 1,320 Climbing Salt Lake Center
09:51AM 45.2408 -110.4206 154° Southeast 382 440 19,100 1,260 Climbing Salt Lake Center
09:51AM 45.3319 -110.4431 350° North 402 463 19,600 1,200 Climbing Salt Lake Center
09:52AM 45.1506 -110.3183 154° Southeast 412 474 20,300 1,140 Climbing Salt Lake Center
09:52AM 45.2436 -110.3417 350° North 410 472 20,800 1,140 Climbing Salt Lake Center
09:53AM 45.0558 -110.2158 155° Southeast 423 487 21,500 1,320 Climbing Salt Lake Center
09:53AM 45.1328 -110.2114 North 433 498 22,200 1,260 Climbing Salt Lake Center
09:54AM 44.9592 -110.1083 157° South 437 503 22,800 1,260 Climbing Salt Lake Center
09:54AM 45.0372 -110.0983 North 443 510 23,500 1,200 Climbing Salt Lake Center
09:55AM 44.8597 -109.9994 158° South 447 514 24,000 1,080 Climbing Salt Lake Center
09:55AM 44.9444 -109.9903 North 449 517 24,600 1,140 Climbing Salt Lake Center
09:56AM 44.7578 -109.8894 159° South 453 521 25,200 1,140 Climbing Salt Lake Center
09:56AM 44.8494 -109.8828 North 455 524 25,800 1,200 Climbing Salt Lake Center
09:57AM 44.6714 -109.7958 161° South 457 526 26,300 1,200 Climbing Salt Lake Center
09:57AM 44.7461 -109.7633 17° North 457 526 27,100 1,140 Climbing Salt Lake Center
09:58AM 44.5683 -109.6839 162° South 459 528 27,500 1,140 Climbing Salt Lake Center
09:58AM 44.6469 -109.6503 17° North 462 532 28,300 1,140 Climbing Salt Lake Center
09:59AM 44.5497 -109.5381 141° Southeast 458 527 29,500 1,080 Climbing Salt Lake Center
10:00AM 44.4514 -109.4267 141° Southeast 454 522 30,500 720 Climbing Salt Lake Center
10:01AM 44.3497 -109.3131 141° Southeast 464 534 31,000 660 Climbing Salt Lake Center
10:02AM 44.2242 -109.1717 141° Southeast 482 555 31,900 780 Climbing Salt Lake Center
10:03AM 44.1181 -109.0536 141° Southeast 489 563 32,600 660 Climbing Salt Lake Center
10:04AM 44.0131 -108.9350 141° Southeast 489 563 33,300 780 Climbing Salt Lake Center
10:05AM 43.9069 -108.8175 141° Southeast 490 564 34,200 840 Climbing Salt Lake Center
10:07AM 43.8022 -108.7028 142° Southeast 484 557 35,100 840 Climbing Salt Lake Center
10:08AM 43.6972 -108.5892 142° Southeast 482 555 36,000 840 Climbing Salt Lake Center
10:09AM 43.5936 -108.4739 141° Southeast 480 552 36,900 840 Climbing Salt Lake Center
10:10AM 43.4908 -108.3642 142° Southeast 472 543 37,800 960 Climbing Salt Lake Center
10:11AM 43.3714 -108.2325 141° Southeast 463 533 38,900 540 Climbing Salt Lake Center
10:12AM 43.2728 -108.1275 142° Southeast 454 522 39,000  Climbing Salt Lake Center
10:13AM 43.1711 -108.0197 142° Southeast 462 532 39,000  Level Salt Lake Center
10:14AM 43.0672 -107.9083 142° Southeast 472 543 39,000  Level Salt Lake Center
10:15AM 42.9642 -107.7978 142° Southeast 474 545 39,000  Level Salt Lake Center
10:16AM 42.8475 -107.6736 142° Southeast 478 550 39,000  Level Salt Lake Center
10:17AM 42.7461 -107.5656 142° Southeast 480 552 39,000  Level Salt Lake Center
10:18AM 42.6447 -107.4603 143° Southeast 479 551 39,000  Level Salt Lake Center
10:19AM 42.5311 -107.3431 143° Southeast 465 535 39,000  Level Salt Lake Center
10:20AM 42.4339 -107.2436 143° Southeast 458 527 39,000  Level Salt Lake Center
10:21AM 42.3553 -107.1636 143° Southeast 448 516 39,000  Level Denver Center
10:22AM 42.2603 -107.0658 143° Southeast 447 514 39,000  Level Denver Center
10:23AM 42.1467 -106.9517 143° Southeast 455 524 39,000  Level Denver Center
10:24AM 42.0467 -106.8525 144° Southeast 462 532 39,000  Level Denver Center
10:25AM 41.9292 -106.7325 143° Southeast 471 542 39,000 -180 Level Denver Center
10:26AM 41.8267 -106.6314 144° Southeast 475 547 38,700 -840 Descending Denver Center
10:27AM 41.7206 -106.5272 144° Southeast 484 557 37,300 -1,560 Descending Denver Center
10:28AM 41.6003 -106.4100 144° Southeast 484 557 35,600 -1,560 Descending Denver Center
10:29AM 41.4950 -106.3033 143° Southeast 491 565 34,200 -1,500 Descending Denver Center
10:30AM 41.3731 -106.1856 144° Southeast 488 562 32,500 -1,500 Descending Denver Center
10:31AM 41.2647 -106.0808 144° Southeast 498 573 31,100 -1,740 Descending Denver Center
10:32AM 41.1389 -105.9572 143° Southeast 504 580 29,000 -1,860 Descending Denver Center
10:33AM 41.0386 -105.8603 144° Southeast 478 550 27,300 -1,800 Descending Denver Center
10:34AM 40.9272 -105.7528 144° Southeast 464 534 25,300 -1,800 Descending Denver Center
10:35AM 40.8294 -105.6603 144° Southeast 440 506 23,600 -1,560 Descending Denver Center
10:36AM 40.7389 -105.5714 143° Southeast 412 474 22,100 -1,440 Descending Denver Center
10:37AM 40.6497 -105.4853 144° Southeast 400 460 20,700 -1,380 Descending Denver Center
10:38AM 40.5739 -105.3836 134° Southeast 388 447 19,300 -1,380 Descending Denver Center
10:39AM 40.5036 -105.2578 126° Southeast 358 412 17,900 -1,200 Descending Denver Center
10:40AM 40.4647 -105.1394 113° Southeast 367 422 16,900 -1,140 Descending Denver Center
10:41AM 40.4303 -105.0147 110° East 338 389 15,600 -1,200 Descending Denver Center
10:42AM 40.4003 -104.9144 111° Southeast 299 344 14,500 -1,080 Descending Denver Center
10:43AM 40.3311 -104.8514 145° Southeast 282 325 13,400 -1,020 Descending Denver Center
10:44AM 40.2614 -104.8042 153° Southeast 283 326 12,400 -1,020 Descending Denver Center
10:45AM 40.1944 -104.7589 153° Southeast 273 314 11,300 -1,380 Descending Denver Center
10:46AM 40.1300 -104.7142 152° Southeast 246 283 9,600 -1,500 Descending Denver Center
10:47AM 40.0736 -104.6944 165° South 205 236 8,200 -960 Descending Denver Center
10:48AM 40.0192 -104.6947 180° South 183 211 7,700 -780 Descending Denver Center
10:49AM 39.9692 -104.6956 181° South 180 207 6,700 -780 Descending Denver Center
10:50AM 39.9336 -104.6956 180° South 146 168 6,100 -720 Descending Denver Center
10:51AM 39.8858 -104.6961 181° South 143 165 5,300 -780 Descending Denver Center
10:53AM 39.8617 -104.6732 180° South  Level Estimated
11:00AM 39.8617 -104.6732 180° South  Level Estimated
11:01AM 39.8617 -104.6732 180° South  Level Estimated
11:02AM 39.8617 -104.6732 180° South  Level Estimated